Free Practice 2 – Peurunka

POSIT NUM DRIVER NAT BOAT LAPS BEST LAP AT SPEED Km/h
1 21 Erik Edin SWE Molgaard 40 00:42:57 26 143,8
2 51 Uvis Slakteris LAT Molgaard 45 00:43:13 45 141,9
3 17 Sami Selio FIN BABA 23 00:43:19 7 141,7
4 74 Alex Carella UAE DAC 20 00:43:22 17 141,6
5 19 Stefan Hagin GER Molgaard 30 00:43:50 8 140,7
6 44 Alberto Comparato ITA DAC 38 00:43:69 22 140,1
7 1 Pierre Lundin SWE Moore 22 00:44:00 22 139,1
8 55 Frode Sundsdal NOR DAC 33 00:44:06 30 138,9
9 41 Edgaras Riabko LT DAC 32 00:44:11 7 138,7
10 3 Owen Jelf GBR BaBa 44 00:44:12 25 138,7
11 77 Tobias Munthe-Kaas NOR BaBa 30 00:44:25 22 138,3
12 2 Johan Österberg SWE Molgaard 35 00:44:62 33 137,2
13 5 Rupert Temper AT DAC 21 00:44:81 18 136,6
14 88 Pal Virik Nilsen NOR Molgaard 49 00:45:01 27 136,0
15 20 Konstantin Ustinov RUS DAC 31 00:45:13 30 135,6
16 22 Roman Vandyshev RUS DAC 41 00:45:14 19 135,6
17 6 Ola Pettersson SWE Molgaard 20 00:45:25 15 135,2
18 54 Daniel Segenmark SWE Moore 43 00:45:47 43 134,6
19 10 Oskar Samuelsson SWE Molgaard 16 00:45:64 12 134,1
20 11 Bimba Sjöholm SWE Molgaard 5 00:50:92 3 120,2
21 12 Harri Lehti FIN ADIMC 26 00:53:25 24 114,9
22 9 Mette B. Bjerknæs NOR Moore 13 01:02:25 13 98,3
23 13 Matthew Palfreyman GBR Moore 3 02:38:86 1 38,5
24 50 Nick Bisterfeld GER DAC 0 00:00:00 0 0,0